Terminal Aerodrome Forecast
Issued by NWS

Home | Current Version | Previous Version | Graphics & Text | Print | Product List | Glossary On
Versions: 1 2 3 4 5 6 7 8 9 10 11 12 13 14 15 16 17
000
FTUS43 KGRB 210401 AAB
TAFCWA
TAF AMD
KCWA 210401Z 2104/2124 18008KT 1/2SM RA FG OVC002 WS020/22045KT
     FM210600 22009KT 3SM BR BKN004
     FM210900 24006KT 5SM BR BKN003
     FM211300 29005KT 5SM BR BKN007
     FM211600 28009G15KT P6SM SCT250=

USA.gov is the U.S. government's official web portal to all federal, state and local government web resources and services.